sensor_id;sensor_type;location;lat;lon;timestamp;P1;durP1;ratioP1;P2;durP2;ratioP2
68858;SDS011;55864;49.238;8.092;2023-05-19T00:00:17;6.10;;;2.20;;
68858;SDS011;55864;49.238;8.092;2023-05-19T00:02:18;6.18;;;2.20;;
68858;SDS011;55864;49.238;8.092;2023-05-19T00:04:19;9.55;;;2.65;;
68858;SDS011;55864;49.238;8.092;2023-05-19T00:06:21;5.75;;;2.25;;
68858;SDS011;55864;49.238;8.092;2023-05-19T00:08:24;8.67;;;2.47;;
68858;SDS011;55864;49.238;8.092;2023-05-19T00:10:27;10.25;;;2.33;;
68858;SDS011;55864;49.238;8.092;2023-05-19T00:12:28;8.32;;;2.72;;
68858;SDS011;55864;49.238;8.092;2023-05-19T00:14:29;7.65;;;2.65;;
68858;SDS011;55864;49.238;8.092;2023-05-19T00:16:30;7.30;;;2.58;;
68858;SDS011;55864;49.238;8.092;2023-05-19T00:18:32;6.65;;;2.33;;
68858;SDS011;55864;49.238;8.092;2023-05-19T00:20:32;7.55;;;2.30;;
68858;SDS011;55864;49.238;8.092;2023-05-19T00:22:33;6.60;;;2.08;;
68858;SDS011;55864;49.238;8.092;2023-05-19T00:24:35;9.32;;;3.10;;
68858;SDS011;55864;49.238;8.092;2023-05-19T00:26:35;7.55;;;2.53;;
68858;SDS011;55864;49.238;8.092;2023-05-19T00:28:38;7.07;;;2.20;;
68858;SDS011;55864;49.238;8.092;2023-05-19T00:30:39;7.65;;;2.40;;
68858;SDS011;55864;49.238;8.092;2023-05-19T00:32:39;7.15;;;2.42;;
68858;SDS011;55864;49.238;8.092;2023-05-19T00:34:40;11.07;;;2.65;;
68858;SDS011;55864;49.238;8.092;2023-05-19T00:36:41;6.88;;;2.60;;
68858;SDS011;55864;49.238;8.092;2023-05-19T00:38:41;7.50;;;2.13;;
68858;SDS011;55864;49.238;8.092;2023-05-19T00:40:43;7.47;;;2.13;;
68858;SDS011;55864;49.238;8.092;2023-05-19T00:42:45;12.63;;;2.60;;
68858;SDS011;55864;49.238;8.092;2023-05-19T00:44:45;8.43;;;2.00;;
68858;SDS011;55864;49.238;8.092;2023-05-19T00:46:46;7.40;;;2.72;;
68858;SDS011;55864;49.238;8.092;2023-05-19T00:48:47;8.48;;;2.47;;
68858;SDS011;55864;49.238;8.092;2023-05-19T00:50:47;6.47;;;2.20;;
68858;SDS011;55864;49.238;8.092;2023-05-19T00:52:49;8.85;;;2.50;;
68858;SDS011;55864;49.238;8.092;2023-05-19T00:54:50;8.63;;;2.22;;
68858;SDS011;55864;49.238;8.092;2023-05-19T00:56:52;6.35;;;2.15;;
68858;SDS011;55864;49.238;8.092;2023-05-19T00:58:53;7.97;;;2.83;;
68858;SDS011;55864;49.238;8.092;2023-05-19T01:00:54;7.82;;;2.65;;
68858;SDS011;55864;49.238;8.092;2023-05-19T01:02:56;7.65;;;2.20;;
68858;SDS011;55864;49.238;8.092;2023-05-19T01:04:57;12.32;;;2.75;;
68858;SDS011;55864;49.238;8.092;2023-05-19T01:06:59;8.18;;;2.33;;
68858;SDS011;55864;49.238;8.092;2023-05-19T01:08:59;11.98;;;2.72;;
68858;SDS011;55864;49.238;8.092;2023-05-19T01:11:00;11.18;;;2.80;;
68858;SDS011;55864;49.238;8.092;2023-05-19T01:13:02;7.68;;;2.38;;
68858;SDS011;55864;49.238;8.092;2023-05-19T01:15:04;6.47;;;2.40;;
68858;SDS011;55864;49.238;8.092;2023-05-19T01:17:07;7.88;;;2.17;;
68858;SDS011;55864;49.238;8.092;2023-05-19T01:19:19;7.10;;;2.50;;
68858;SDS011;55864;49.238;8.092;2023-05-19T01:24:00;6.65;;;2.47;;
68858;SDS011;55864;49.238;8.092;2023-05-19T01:26:16;5.22;;;2.17;;
68858;SDS011;55864;49.238;8.092;2023-05-19T01:31:08;7.05;;;2.50;;
68858;SDS011;55864;49.238;8.092;2023-05-19T01:33:12;6.50;;;2.28;;
68858;SDS011;55864;49.238;8.092;2023-05-19T01:35:14;7.47;;;2.53;;
68858;SDS011;55864;49.238;8.092;2023-05-19T01:37:16;8.63;;;2.33;;
68858;SDS011;55864;49.238;8.092;2023-05-19T01:39:17;6.28;;;2.50;;
68858;SDS011;55864;49.238;8.092;2023-05-19T01:41:19;7.93;;;2.60;;
68858;SDS011;55864;49.238;8.092;2023-05-19T01:43:24;8.10;;;2.55;;
68858;SDS011;55864;49.238;8.092;2023-05-19T01:45:26;7.07;;;2.47;;
68858;SDS011;55864;49.238;8.092;2023-05-19T01:47:30;9.77;;;2.53;;
68858;SDS011;55864;49.238;8.092;2023-05-19T01:49:31;7.68;;;2.25;;
68858;SDS011;55864;49.238;8.092;2023-05-19T01:51:31;7.80;;;2.60;;
68858;SDS011;55864;49.238;8.092;2023-05-19T01:53:32;9.93;;;2.88;;
68858;SDS011;55864;49.238;8.092;2023-05-19T01:55:34;8.98;;;2.30;;
68858;SDS011;55864;49.238;8.092;2023-05-19T01:57:38;6.80;;;2.30;;
68858;SDS011;55864;49.238;8.092;2023-05-19T01:59:48;7.95;;;2.35;;
68858;SDS011;55864;49.238;8.092;2023-05-19T02:01:57;7.88;;;2.63;;
68858;SDS011;55864;49.238;8.092;2023-05-19T02:04:12;6.88;;;2.40;;
68858;SDS011;55864;49.238;8.092;2023-05-19T02:06:21;6.45;;;2.35;;
68858;SDS011;55864;49.238;8.092;2023-05-19T02:08:37;7.10;;;2.60;;
68858;SDS011;55864;49.238;8.092;2023-05-19T02:10:43;8.43;;;2.40;;
68858;SDS011;55864;49.238;8.092;2023-05-19T02:12:49;9.27;;;2.60;;
68858;SDS011;55864;49.238;8.092;2023-05-19T02:14:54;5.30;;;2.15;;
68858;SDS011;55864;49.238;8.092;2023-05-19T02:16:59;9.15;;;2.60;;
68858;SDS011;55864;49.238;8.092;2023-05-19T02:19:02;9.75;;;2.70;;
68858;SDS011;55864;49.238;8.092;2023-05-19T02:21:04;6.03;;;2.45;;
68858;SDS011;55864;49.238;8.092;2023-05-19T02:23:05;6.85;;;2.50;;
68858;SDS011;55864;49.238;8.092;2023-05-19T02:25:06;6.50;;;2.38;;
68858;SDS011;55864;49.238;8.092;2023-05-19T02:27:07;8.45;;;2.20;;
68858;SDS011;55864;49.238;8.092;2023-05-19T02:29:07;8.25;;;2.30;;
68858;SDS011;55864;49.238;8.092;2023-05-19T02:31:08;8.95;;;2.50;;
68858;SDS011;55864;49.238;8.092;2023-05-19T02:33:08;6.95;;;2.38;;
68858;SDS011;55864;49.238;8.092;2023-05-19T02:35:09;6.75;;;2.22;;
68858;SDS011;55864;49.238;8.092;2023-05-19T02:37:11;6.22;;;2.30;;
68858;SDS011;55864;49.238;8.092;2023-05-19T02:39:12;8.17;;;2.10;;
68858;SDS011;55864;49.238;8.092;2023-05-19T02:41:12;10.02;;;2.50;;
68858;SDS011;55864;49.238;8.092;2023-05-19T02:43:13;7.38;;;2.25;;
68858;SDS011;55864;49.238;8.092;2023-05-19T02:45:14;5.72;;;2.10;;
68858;SDS011;55864;49.238;8.092;2023-05-19T02:47:15;7.82;;;2.63;;
68858;SDS011;55864;49.238;8.092;2023-05-19T02:49:15;6.72;;;2.08;;
68858;SDS011;55864;49.238;8.092;2023-05-19T02:51:16;7.45;;;2.20;;
68858;SDS011;55864;49.238;8.092;2023-05-19T02:53:18;4.97;;;2.00;;
68858;SDS011;55864;49.238;8.092;2023-05-19T02:55:18;6.05;;;2.05;;
68858;SDS011;55864;49.238;8.092;2023-05-19T02:57:19;7.38;;;2.28;;
68858;SDS011;55864;49.238;8.092;2023-05-19T02:59:19;9.20;;;2.78;;
68858;SDS011;55864;49.238;8.092;2023-05-19T03:01:20;7.30;;;2.90;;
68858;SDS011;55864;49.238;8.092;2023-05-19T03:03:20;6.32;;;2.38;;
68858;SDS011;55864;49.238;8.092;2023-05-19T03:05:21;9.00;;;2.40;;
68858;SDS011;55864;49.238;8.092;2023-05-19T03:07:21;8.23;;;2.45;;
68858;SDS011;55864;49.238;8.092;2023-05-19T03:09:23;7.30;;;2.30;;
68858;SDS011;55864;49.238;8.092;2023-05-19T03:11:24;8.73;;;2.40;;
68858;SDS011;55864;49.238;8.092;2023-05-19T03:13:24;7.05;;;2.30;;
68858;SDS011;55864;49.238;8.092;2023-05-19T03:15:25;8.95;;;2.40;;
68858;SDS011;55864;49.238;8.092;2023-05-19T03:17:25;6.65;;;2.45;;
68858;SDS011;55864;49.238;8.092;2023-05-19T03:19:26;6.30;;;2.40;;
68858;SDS011;55864;49.238;8.092;2023-05-19T03:21:27;7.03;;;1.95;;
68858;SDS011;55864;49.238;8.092;2023-05-19T03:23:27;7.82;;;2.50;;
68858;SDS011;55864;49.238;8.092;2023-05-19T03:25:29;10.88;;;3.13;;
68858;SDS011;55864;49.238;8.092;2023-05-19T03:27:29;6.78;;;2.47;;
68858;SDS011;55864;49.238;8.092;2023-05-19T03:29:30;8.95;;;2.90;;
68858;SDS011;55864;49.238;8.092;2023-05-19T03:31:31;7.30;;;2.10;;
68858;SDS011;55864;49.238;8.092;2023-05-19T03:33:32;9.05;;;2.33;;
68858;SDS011;55864;49.238;8.092;2023-05-19T03:35:33;6.70;;;2.33;;
68858;SDS011;55864;49.238;8.092;2023-05-19T03:37:34;6.72;;;2.40;;
68858;SDS011;55864;49.238;8.092;2023-05-19T03:39:34;7.18;;;2.47;;
68858;SDS011;55864;49.238;8.092;2023-05-19T03:41:37;6.10;;;2.17;;
68858;SDS011;55864;49.238;8.092;2023-05-19T03:43:37;8.23;;;2.50;;
68858;SDS011;55864;49.238;8.092;2023-05-19T03:45:40;8.43;;;2.40;;
68858;SDS011;55864;49.238;8.092;2023-05-19T03:48:01;6.35;;;2.00;;
68858;SDS011;55864;49.238;8.092;2023-05-19T03:50:27;9.50;;;2.20;;
68858;SDS011;55864;49.238;8.092;2023-05-19T03:52:34;8.77;;;2.80;;
68858;SDS011;55864;49.238;8.092;2023-05-19T03:54:58;11.00;;;2.42;;
68858;SDS011;55864;49.238;8.092;2023-05-19T03:57:00;8.93;;;2.08;;
68858;SDS011;55864;49.238;8.092;2023-05-19T03:59:01;6.95;;;2.80;;
68858;SDS011;55864;49.238;8.092;2023-05-19T04:01:01;8.80;;;2.50;;
68858;SDS011;55864;49.238;8.092;2023-05-19T04:03:02;7.72;;;2.40;;
68858;SDS011;55864;49.238;8.092;2023-05-19T04:05:02;9.40;;;2.58;;
68858;SDS011;55864;49.238;8.092;2023-05-19T04:07:04;6.95;;;2.60;;
68858;SDS011;55864;49.238;8.092;2023-05-19T04:09:09;7.32;;;2.40;;
68858;SDS011;55864;49.238;8.092;2023-05-19T04:11:11;9.30;;;2.40;;
68858;SDS011;55864;49.238;8.092;2023-05-19T04:13:13;7.70;;;2.30;;
68858;SDS011;55864;49.238;8.092;2023-05-19T04:15:13;7.32;;;1.98;;
68858;SDS011;55864;49.238;8.092;2023-05-19T04:17:14;7.00;;;2.22;;
68858;SDS011;55864;49.238;8.092;2023-05-19T04:19:14;6.82;;;2.17;;
68858;SDS011;55864;49.238;8.092;2023-05-19T04:21:15;9.10;;;2.50;;
68858;SDS011;55864;49.238;8.092;2023-05-19T04:23:15;5.95;;;2.30;;
68858;SDS011;55864;49.238;8.092;2023-05-19T04:25:17;7.55;;;2.60;;
68858;SDS011;55864;49.238;8.092;2023-05-19T04:27:17;7.93;;;2.42;;
68858;SDS011;55864;49.238;8.092;2023-05-19T04:29:19;9.32;;;2.85;;
68858;SDS011;55864;49.238;8.092;2023-05-19T04:31:20;8.07;;;2.70;;
68858;SDS011;55864;49.238;8.092;2023-05-19T04:33:22;7.45;;;2.40;;
68858;SDS011;55864;49.238;8.092;2023-05-19T04:35:23;9.32;;;2.70;;
68858;SDS011;55864;49.238;8.092;2023-05-19T04:37:24;7.95;;;2.58;;
68858;SDS011;55864;49.238;8.092;2023-05-19T04:39:24;6.82;;;2.40;;
68858;SDS011;55864;49.238;8.092;2023-05-19T04:41:25;7.60;;;2.65;;
68858;SDS011;55864;49.238;8.092;2023-05-19T04:43:26;7.65;;;2.67;;
68858;SDS011;55864;49.238;8.092;2023-05-19T04:45:28;8.90;;;2.50;;
68858;SDS011;55864;49.238;8.092;2023-05-19T04:47:32;9.90;;;2.67;;
68858;SDS011;55864;49.238;8.092;2023-05-19T04:49:33;9.30;;;2.45;;
68858;SDS011;55864;49.238;8.092;2023-05-19T04:51:33;7.75;;;2.50;;
68858;SDS011;55864;49.238;8.092;2023-05-19T04:53:35;11.55;;;2.70;;
68858;SDS011;55864;49.238;8.092;2023-05-19T04:55:36;8.60;;;3.35;;
68858;SDS011;55864;49.238;8.092;2023-05-19T04:57:37;8.65;;;2.72;;
68858;SDS011;55864;49.238;8.092;2023-05-19T04:59:37;6.72;;;2.60;;
68858;SDS011;55864;49.238;8.092;2023-05-19T05:01:42;6.32;;;2.25;;
68858;SDS011;55864;49.238;8.092;2023-05-19T05:03:46;7.35;;;2.30;;
68858;SDS011;55864;49.238;8.092;2023-05-19T05:05:47;5.75;;;2.50;;
68858;SDS011;55864;49.238;8.092;2023-05-19T05:07:47;8.80;;;2.33;;
68858;SDS011;55864;49.238;8.092;2023-05-19T05:09:48;9.82;;;2.47;;
68858;SDS011;55864;49.238;8.092;2023-05-19T05:11:49;6.78;;;2.45;;
68858;SDS011;55864;49.238;8.092;2023-05-19T05:13:50;5.65;;;2.30;;
68858;SDS011;55864;49.238;8.092;2023-05-19T05:15:52;9.00;;;2.75;;
68858;SDS011;55864;49.238;8.092;2023-05-19T05:17:57;7.88;;;2.53;;
68858;SDS011;55864;49.238;8.092;2023-05-19T05:19:59;8.65;;;2.55;;
68858;SDS011;55864;49.238;8.092;2023-05-19T05:22:00;9.68;;;2.30;;
68858;SDS011;55864;49.238;8.092;2023-05-19T05:24:01;6.15;;;2.40;;
68858;SDS011;55864;49.238;8.092;2023-05-19T05:26:06;6.75;;;2.28;;
68858;SDS011;55864;49.238;8.092;2023-05-19T05:28:12;8.35;;;2.58;;
68858;SDS011;55864;49.238;8.092;2023-05-19T05:30:13;12.45;;;2.88;;
68858;SDS011;55864;49.238;8.092;2023-05-19T05:32:14;10.05;;;2.80;;
68858;SDS011;55864;49.238;8.092;2023-05-19T05:34:16;8.07;;;2.55;;
68858;SDS011;55864;49.238;8.092;2023-05-19T05:36:17;8.13;;;2.63;;
68858;SDS011;55864;49.238;8.092;2023-05-19T05:38:17;8.48;;;2.70;;
68858;SDS011;55864;49.238;8.092;2023-05-19T05:40:18;6.07;;;2.42;;
68858;SDS011;55864;49.238;8.092;2023-05-19T05:42:19;6.72;;;2.35;;
68858;SDS011;55864;49.238;8.092;2023-05-19T05:44:20;6.43;;;2.08;;
68858;SDS011;55864;49.238;8.092;2023-05-19T05:46:20;6.07;;;2.20;;
68858;SDS011;55864;49.238;8.092;2023-05-19T05:48:21;7.72;;;2.38;;
68858;SDS011;55864;49.238;8.092;2023-05-19T05:50:24;6.22;;;2.30;;
68858;SDS011;55864;49.238;8.092;2023-05-19T05:52:28;8.27;;;2.30;;
68858;SDS011;55864;49.238;8.092;2023-05-19T05:54:29;7.50;;;2.40;;
68858;SDS011;55864;49.238;8.092;2023-05-19T05:56:31;9.52;;;2.60;;
68858;SDS011;55864;49.238;8.092;2023-05-19T05:58:32;7.70;;;2.55;;
68858;SDS011;55864;49.238;8.092;2023-05-19T06:00:33;6.72;;;2.50;;
68858;SDS011;55864;49.238;8.092;2023-05-19T06:02:33;7.32;;;2.33;;
68858;SDS011;55864;49.238;8.092;2023-05-19T06:04:34;8.25;;;2.25;;
68858;SDS011;55864;49.238;8.092;2023-05-19T06:06:36;8.75;;;2.30;;
68858;SDS011;55864;49.238;8.092;2023-05-19T06:08:36;7.78;;;2.47;;
68858;SDS011;55864;49.238;8.092;2023-05-19T06:10:37;8.13;;;2.70;;
68858;SDS011;55864;49.238;8.092;2023-05-19T06:12:41;6.65;;;2.90;;
68858;SDS011;55864;49.238;8.092;2023-05-19T06:14:41;7.45;;;2.30;;
68858;SDS011;55864;49.238;8.092;2023-05-19T06:16:50;6.82;;;2.58;;
68858;SDS011;55864;49.238;8.092;2023-05-19T06:18:51;7.65;;;2.47;;
68858;SDS011;55864;49.238;8.092;2023-05-19T06:20:51;8.00;;;2.40;;
68858;SDS011;55864;49.238;8.092;2023-05-19T06:22:54;10.70;;;2.95;;
68858;SDS011;55864;49.238;8.092;2023-05-19T06:24:56;7.65;;;2.20;;
68858;SDS011;55864;49.238;8.092;2023-05-19T06:26:56;7.47;;;2.30;;
68858;SDS011;55864;49.238;8.092;2023-05-19T06:28:57;10.48;;;2.70;;
68858;SDS011;55864;49.238;8.092;2023-05-19T06:30:58;6.35;;;2.33;;
68858;SDS011;55864;49.238;8.092;2023-05-19T06:33:13;7.03;;;2.40;;
68858;SDS011;55864;49.238;8.092;2023-05-19T06:35:14;9.02;;;2.88;;
68858;SDS011;55864;49.238;8.092;2023-05-19T06:37:15;9.00;;;2.20;;
68858;SDS011;55864;49.238;8.092;2023-05-19T06:39:17;8.43;;;2.35;;
68858;SDS011;55864;49.238;8.092;2023-05-19T06:41:17;5.75;;;2.45;;
68858;SDS011;55864;49.238;8.092;2023-05-19T06:43:20;8.88;;;3.05;;
68858;SDS011;55864;49.238;8.092;2023-05-19T06:45:27;6.70;;;2.50;;
68858;SDS011;55864;49.238;8.092;2023-05-19T06:47:28;9.77;;;2.55;;
68858;SDS011;55864;49.238;8.092;2023-05-19T06:49:29;5.97;;;2.38;;
68858;SDS011;55864;49.238;8.092;2023-05-19T06:51:29;7.28;;;2.47;;
68858;SDS011;55864;49.238;8.092;2023-05-19T06:53:32;6.68;;;2.30;;
68858;SDS011;55864;49.238;8.092;2023-05-19T06:55:34;6.20;;;2.45;;
68858;SDS011;55864;49.238;8.092;2023-05-19T06:57:34;6.72;;;2.65;;
68858;SDS011;55864;49.238;8.092;2023-05-19T06:59:36;7.35;;;2.70;;
68858;SDS011;55864;49.238;8.092;2023-05-19T07:01:36;6.65;;;2.25;;
68858;SDS011;55864;49.238;8.092;2023-05-19T07:03:37;9.30;;;2.38;;
68858;SDS011;55864;49.238;8.092;2023-05-19T07:05:38;6.15;;;2.35;;
68858;SDS011;55864;49.238;8.092;2023-05-19T07:07:38;7.35;;;2.40;;
68858;SDS011;55864;49.238;8.092;2023-05-19T07:09:44;6.20;;;2.20;;
68858;SDS011;55864;49.238;8.092;2023-05-19T07:11:46;7.47;;;2.45;;
68858;SDS011;55864;49.238;8.092;2023-05-19T07:13:46;6.82;;;2.20;;
68858;SDS011;55864;49.238;8.092;2023-05-19T07:15:53;7.35;;;2.70;;
68858;SDS011;55864;49.238;8.092;2023-05-19T07:17:54;10.35;;;2.42;;
68858;SDS011;55864;49.238;8.092;2023-05-19T07:19:54;7.75;;;2.33;;
68858;SDS011;55864;49.238;8.092;2023-05-19T07:21:55;9.18;;;2.80;;
68858;SDS011;55864;49.238;8.092;2023-05-19T07:23:56;6.15;;;2.38;;
68858;SDS011;55864;49.238;8.092;2023-05-19T07:25:56;8.65;;;2.60;;
68858;SDS011;55864;49.238;8.092;2023-05-19T07:27:58;7.78;;;2.42;;
68858;SDS011;55864;49.238;8.092;2023-05-19T07:29:59;6.30;;;2.28;;
68858;SDS011;55864;49.238;8.092;2023-05-19T07:31:59;9.02;;;2.92;;
68858;SDS011;55864;49.238;8.092;2023-05-19T07:34:00;8.48;;;2.92;;
68858;SDS011;55864;49.238;8.092;2023-05-19T07:36:00;6.40;;;2.38;;
68858;SDS011;55864;49.238;8.092;2023-05-19T07:38:01;8.45;;;2.47;;
68858;SDS011;55864;49.238;8.092;2023-05-19T07:40:02;9.30;;;2.78;;
68858;SDS011;55864;49.238;8.092;2023-05-19T07:42:03;11.98;;;3.38;;
68858;SDS011;55864;49.238;8.092;2023-05-19T07:44:05;8.85;;;2.45;;
68858;SDS011;55864;49.238;8.092;2023-05-19T07:46:06;10.85;;;2.53;;
68858;SDS011;55864;49.238;8.092;2023-05-19T07:48:06;8.93;;;2.70;;
68858;SDS011;55864;49.238;8.092;2023-05-19T07:50:07;11.02;;;2.78;;
68858;SDS011;55864;49.238;8.092;2023-05-19T07:52:08;7.72;;;2.95;;
68858;SDS011;55864;49.238;8.092;2023-05-19T07:54:08;10.75;;;2.65;;
68858;SDS011;55864;49.238;8.092;2023-05-19T07:56:09;8.20;;;2.25;;
68858;SDS011;55864;49.238;8.092;2023-05-19T07:58:09;7.40;;;2.50;;
68858;SDS011;55864;49.238;8.092;2023-05-19T08:00:12;8.57;;;2.88;;
68858;SDS011;55864;49.238;8.092;2023-05-19T08:02:14;9.20;;;2.78;;
68858;SDS011;55864;49.238;8.092;2023-05-19T08:04:18;9.38;;;2.80;;
68858;SDS011;55864;49.238;8.092;2023-05-19T08:06:18;10.00;;;3.30;;
68858;SDS011;55864;49.238;8.092;2023-05-19T08:08:19;9.63;;;2.67;;
68858;SDS011;55864;49.238;8.092;2023-05-19T08:10:19;9.15;;;3.00;;
68858;SDS011;55864;49.238;8.092;2023-05-19T08:12:20;8.40;;;2.83;;
68858;SDS011;55864;49.238;8.092;2023-05-19T08:14:20;8.88;;;2.80;;
68858;SDS011;55864;49.238;8.092;2023-05-19T08:16:22;9.90;;;2.72;;
68858;SDS011;55864;49.238;8.092;2023-05-19T08:18:23;9.13;;;2.45;;
68858;SDS011;55864;49.238;8.092;2023-05-19T08:20:24;7.47;;;2.88;;
68858;SDS011;55864;49.238;8.092;2023-05-19T08:22:24;8.40;;;3.38;;
68858;SDS011;55864;49.238;8.092;2023-05-19T08:24:25;12.48;;;2.90;;
68858;SDS011;55864;49.238;8.092;2023-05-19T08:26:25;8.43;;;3.00;;
68858;SDS011;55864;49.238;8.092;2023-05-19T08:28:26;8.98;;;2.75;;
68858;SDS011;55864;49.238;8.092;2023-05-19T08:30:26;11.20;;;3.13;;
68858;SDS011;55864;49.238;8.092;2023-05-19T08:32:28;10.32;;;2.78;;
68858;SDS011;55864;49.238;8.092;2023-05-19T08:34:29;9.13;;;2.88;;
68858;SDS011;55864;49.238;8.092;2023-05-19T08:36:29;10.55;;;2.90;;
68858;SDS011;55864;49.238;8.092;2023-05-19T08:38:30;9.07;;;2.95;;
68858;SDS011;55864;49.238;8.092;2023-05-19T08:40:30;10.73;;;3.08;;
68858;SDS011;55864;49.238;8.092;2023-05-19T08:44:34;7.65;;;2.80;;
68858;SDS011;55864;49.238;8.092;2023-05-19T08:46:35;8.93;;;3.13;;
68858;SDS011;55864;49.238;8.092;2023-05-19T08:48:37;7.63;;;3.10;;
68858;SDS011;55864;49.238;8.092;2023-05-19T08:50:41;8.57;;;2.80;;
68858;SDS011;55864;49.238;8.092;2023-05-19T08:52:51;11.30;;;3.13;;
68858;SDS011;55864;49.238;8.092;2023-05-19T08:54:56;9.77;;;3.10;;
68858;SDS011;55864;49.238;8.092;2023-05-19T08:57:00;8.38;;;3.00;;
68858;SDS011;55864;49.238;8.092;2023-05-19T08:59:01;8.30;;;2.75;;
68858;SDS011;55864;49.238;8.092;2023-05-19T09:01:05;10.80;;;3.28;;
68858;SDS011;55864;49.238;8.092;2023-05-19T09:03:06;7.50;;;2.60;;
68858;SDS011;55864;49.238;8.092;2023-05-19T09:05:08;8.70;;;2.55;;
68858;SDS011;55864;49.238;8.092;2023-05-19T09:07:09;10.27;;;2.97;;
68858;SDS011;55864;49.238;8.092;2023-05-19T09:09:12;9.45;;;3.50;;
68858;SDS011;55864;49.238;8.092;2023-05-19T09:11:12;13.95;;;4.63;;
68858;SDS011;55864;49.238;8.092;2023-05-19T09:13:13;7.32;;;2.67;;
68858;SDS011;55864;49.238;8.092;2023-05-19T09:15:14;10.38;;;3.05;;
68858;SDS011;55864;49.238;8.092;2023-05-19T09:17:15;9.40;;;3.00;;
68858;SDS011;55864;49.238;8.092;2023-05-19T09:19:16;12.18;;;3.67;;
68858;SDS011;55864;49.238;8.092;2023-05-19T09:21:18;10.70;;;3.30;;
68858;SDS011;55864;49.238;8.092;2023-05-19T09:23:19;8.38;;;3.00;;
68858;SDS011;55864;49.238;8.092;2023-05-19T09:25:19;12.32;;;3.30;;
68858;SDS011;55864;49.238;8.092;2023-05-19T09:27:22;9.10;;;3.42;;
68858;SDS011;55864;49.238;8.092;2023-05-19T09:29:22;8.45;;;3.15;;
68858;SDS011;55864;49.238;8.092;2023-05-19T09:31:26;8.32;;;2.95;;
68858;SDS011;55864;49.238;8.092;2023-05-19T09:33:32;10.65;;;3.13;;
68858;SDS011;55864;49.238;8.092;2023-05-19T09:35:33;9.18;;;3.17;;
68858;SDS011;55864;49.238;8.092;2023-05-19T09:37:37;10.82;;;3.03;;
68858;SDS011;55864;49.238;8.092;2023-05-19T09:39:39;10.40;;;3.53;;
68858;SDS011;55864;49.238;8.092;2023-05-19T09:41:39;10.32;;;3.25;;
68858;SDS011;55864;49.238;8.092;2023-05-19T09:43:40;8.25;;;3.03;;
68858;SDS011;55864;49.238;8.092;2023-05-19T09:45:40;8.00;;;3.35;;
68858;SDS011;55864;49.238;8.092;2023-05-19T09:47:41;13.55;;;3.60;;
68858;SDS011;55864;49.238;8.092;2023-05-19T09:49:44;9.02;;;3.22;;
68858;SDS011;55864;49.238;8.092;2023-05-19T09:51:48;8.55;;;3.40;;
68858;SDS011;55864;49.238;8.092;2023-05-19T09:53:50;10.10;;;3.60;;
68858;SDS011;55864;49.238;8.092;2023-05-19T09:55:53;10.85;;;3.80;;
68858;SDS011;55864;49.238;8.092;2023-05-19T09:57:55;11.48;;;3.30;;
68858;SDS011;55864;49.238;8.092;2023-05-19T09:59:55;11.25;;;3.33;;
68858;SDS011;55864;49.238;8.092;2023-05-19T10:01:58;10.68;;;3.33;;
68858;SDS011;55864;49.238;8.092;2023-05-19T10:03:59;7.80;;;3.17;;
68858;SDS011;55864;49.238;8.092;2023-05-19T10:06:01;11.95;;;3.20;;
68858;SDS011;55864;49.238;8.092;2023-05-19T10:08:03;9.00;;;3.50;;
68858;SDS011;55864;49.238;8.092;2023-05-19T10:10:09;9.82;;;3.33;;
68858;SDS011;55864;49.238;8.092;2023-05-19T10:12:11;9.00;;;3.20;;
68858;SDS011;55864;49.238;8.092;2023-05-19T10:14:12;9.70;;;3.30;;
68858;SDS011;55864;49.238;8.092;2023-05-19T10:16:14;10.25;;;3.50;;
68858;SDS011;55864;49.238;8.092;2023-05-19T10:18:15;7.55;;;2.83;;
68858;SDS011;55864;49.238;8.092;2023-05-19T10:20:17;10.27;;;3.00;;
68858;SDS011;55864;49.238;8.092;2023-05-19T10:22:17;9.73;;;3.30;;
68858;SDS011;55864;49.238;8.092;2023-05-19T10:24:18;10.15;;;3.28;;
68858;SDS011;55864;49.238;8.092;2023-05-19T10:26:20;8.13;;;3.17;;
68858;SDS011;55864;49.238;8.092;2023-05-19T10:30:25;8.98;;;3.00;;
68858;SDS011;55864;49.238;8.092;2023-05-19T10:32:28;8.13;;;3.30;;
68858;SDS011;55864;49.238;8.092;2023-05-19T10:34:35;8.85;;;3.42;;
68858;SDS011;55864;49.238;8.092;2023-05-19T10:36:57;12.15;;;3.38;;
68858;SDS011;55864;49.238;8.092;2023-05-19T10:39:05;8.02;;;2.60;;
68858;SDS011;55864;49.238;8.092;2023-05-19T10:41:11;8.52;;;2.70;;
68858;SDS011;55864;49.238;8.092;2023-05-19T10:43:23;9.05;;;3.00;;
68858;SDS011;55864;49.238;8.092;2023-05-19T10:45:31;7.78;;;2.97;;
68858;SDS011;55864;49.238;8.092;2023-05-19T10:47:39;10.25;;;3.03;;
68858;SDS011;55864;49.238;8.092;2023-05-19T10:49:40;7.55;;;2.83;;
68858;SDS011;55864;49.238;8.092;2023-05-19T10:51:40;8.73;;;2.78;;
68858;SDS011;55864;49.238;8.092;2023-05-19T10:53:44;10.07;;;3.00;;
68858;SDS011;55864;49.238;8.092;2023-05-19T10:55:45;10.98;;;2.55;;
68858;SDS011;55864;49.238;8.092;2023-05-19T10:57:52;5.95;;;2.92;;
68858;SDS011;55864;49.238;8.092;2023-05-19T10:59:55;7.22;;;2.95;;
68858;SDS011;55864;49.238;8.092;2023-05-19T11:01:56;7.32;;;3.10;;
68858;SDS011;55864;49.238;8.092;2023-05-19T11:03:56;9.02;;;2.58;;
68858;SDS011;55864;49.238;8.092;2023-05-19T11:06:20;8.63;;;2.80;;
68858;SDS011;55864;49.238;8.092;2023-05-19T11:08:30;9.23;;;3.05;;
68858;SDS011;55864;49.238;8.092;2023-05-19T11:10:31;12.10;;;3.22;;
68858;SDS011;55864;49.238;8.092;2023-05-19T11:12:38;8.88;;;2.55;;
68858;SDS011;55864;49.238;8.092;2023-05-19T11:14:40;7.80;;;2.50;;
68858;SDS011;55864;49.238;8.092;2023-05-19T11:16:44;5.78;;;2.50;;
68858;SDS011;55864;49.238;8.092;2023-05-19T11:18:49;10.38;;;2.70;;
68858;SDS011;55864;49.238;8.092;2023-05-19T11:20:54;9.48;;;2.60;;
68858;SDS011;55864;49.238;8.092;2023-05-19T11:23:04;7.93;;;3.03;;
68858;SDS011;55864;49.238;8.092;2023-05-19T11:25:06;8.00;;;2.60;;
68858;SDS011;55864;49.238;8.092;2023-05-19T11:27:16;10.07;;;2.70;;
68858;SDS011;55864;49.238;8.092;2023-05-19T11:29:21;8.63;;;2.40;;
68858;SDS011;55864;49.238;8.092;2023-05-19T11:31:22;5.70;;;2.67;;
68858;SDS011;55864;49.238;8.092;2023-05-19T11:33:25;7.85;;;2.63;;
68858;SDS011;55864;49.238;8.092;2023-05-19T11:35:26;7.17;;;2.80;;
68858;SDS011;55864;49.238;8.092;2023-05-19T11:37:29;7.30;;;2.30;;
68858;SDS011;55864;49.238;8.092;2023-05-19T11:39:31;5.60;;;2.03;;
68858;SDS011;55864;49.238;8.092;2023-05-19T11:41:32;7.22;;;2.63;;
68858;SDS011;55864;49.238;8.092;2023-05-19T11:43:38;7.47;;;2.53;;
68858;SDS011;55864;49.238;8.092;2023-05-19T11:45:38;7.40;;;2.38;;
68858;SDS011;55864;49.238;8.092;2023-05-19T11:47:39;5.68;;;2.17;;
68858;SDS011;55864;49.238;8.092;2023-05-19T11:49:43;9.70;;;2.58;;
68858;SDS011;55864;49.238;8.092;2023-05-19T11:51:44;7.00;;;2.45;;
68858;SDS011;55864;49.238;8.092;2023-05-19T11:53:45;7.53;;;2.35;;
68858;SDS011;55864;49.238;8.092;2023-05-19T11:57:57;9.73;;;2.50;;
68858;SDS011;55864;49.238;8.092;2023-05-19T12:00:00;6.45;;;2.35;;
68858;SDS011;55864;49.238;8.092;2023-05-19T12:02:01;6.68;;;2.65;;
68858;SDS011;55864;49.238;8.092;2023-05-19T12:04:06;8.15;;;2.50;;
68858;SDS011;55864;49.238;8.092;2023-05-19T12:06:09;7.47;;;2.50;;
68858;SDS011;55864;49.238;8.092;2023-05-19T12:08:09;5.90;;;2.38;;
68858;SDS011;55864;49.238;8.092;2023-05-19T12:10:10;6.65;;;2.50;;
68858;SDS011;55864;49.238;8.092;2023-05-19T12:12:12;7.70;;;2.60;;
68858;SDS011;55864;49.238;8.092;2023-05-19T12:14:13;7.07;;;2.45;;
68858;SDS011;55864;49.238;8.092;2023-05-19T12:16:13;7.32;;;2.13;;
68858;SDS011;55864;49.238;8.092;2023-05-19T12:18:37;6.75;;;2.30;;
68858;SDS011;55864;49.238;8.092;2023-05-19T12:20:38;6.45;;;2.42;;
68858;SDS011;55864;49.238;8.092;2023-05-19T12:22:40;6.68;;;2.70;;
68858;SDS011;55864;49.238;8.092;2023-05-19T12:24:41;6.22;;;2.20;;
68858;SDS011;55864;49.238;8.092;2023-05-19T12:26:43;10.80;;;2.77;;